Time;durP1;ratioP1;P1;durP2;ratioP2;P2;SDS_P1;SDS_P2;PMS_P1;PMS_P2;Temp;Humidity;BMP_temperature;BMP_pressure;BME280_temperature;BME280_humidity;BME280_pressure;Samples;Min_cycle;Max_cycle;Signal;HPM_P1;HPM_P2
2021/03/02 00:02:05;;;;;;;25.13;18.80;;;;;;;;;;5107182;27;20604;-41
2021/03/02 00:04:30;;;;;;;25.43;19.63;;;;;;;;;;5086208;28;20588;-41
2021/03/02 00:06:56;;;;;;;25.17;19.47;;;;;;;;;;5124532;27;20645;-40
2021/03/02 00:09:21;;;;;;;25.17;18.47;;;;;;;;;;5111156;27;20182;-41
2021/03/02 00:11:47;;;;;;;23.90;19.60;;;;;;;;;;5116421;27;20293;-41
2021/03/02 00:14:12;;;;;;;25.07;19.10;;;;;;;;;;5103091;28;20199;-41
2021/03/02 00:16:41;;;;;;;23.55;18.17;;;;;;;;;;5123427;27;21047;-41
2021/03/02 00:19:12;;;;;;;21.77;17.90;;;;;;;;;;5110303;27;20642;-42
2021/03/02 00:21:40;;;;;;;22.73;17.50;;;;;;;;;;5110105;28;20594;-41
2021/03/02 00:24:09;;;;;;;24.37;17.37;;;;;;;;;;5101150;28;20607;-41
2021/03/02 00:26:36;;;;;;;22.97;17.60;;;;;;;;;;5084709;28;20604;-41
2021/03/02 00:29:02;;;;;;;26.03;19.60;;;;;;;;;;5110365;27;20598;-41
2021/03/02 00:31:27;;;;;;;21.70;18.07;;;;;;;;;;5110112;28;20604;-41
2021/03/02 00:33:52;;;;;;;22.40;17.85;;;;;;;;;;5104303;28;20694;-41
2021/03/02 00:36:17;;;;;;;23.80;18.30;;;;;;;;;;5127885;27;20201;-40
2021/03/02 00:38:43;;;;;;;23.40;18.60;;;;;;;;;;5121124;28;20634;-40
2021/03/02 00:41:08;;;;;;;25.60;18.47;;;;;;;;;;5125803;27;20190;-41
2021/03/02 00:43:33;;;;;;;25.80;18.55;;;;;;;;;;5108783;28;20168;-40
2021/03/02 00:45:58;;;;;;;21.57;17.90;;;;;;;;;;5113534;28;20276;-40
2021/03/02 00:48:23;;;;;;;22.55;18.50;;;;;;;;;;5091982;28;20570;-41
2021/03/02 00:50:49;;;;;;;23.23;18.60;;;;;;;;;;5101748;28;20538;-41
2021/03/02 00:53:14;;;;;;;22.55;17.42;;;;;;;;;;5112670;28;20182;-41
2021/03/02 00:55:39;;;;;;;21.70;17.93;;;;;;;;;;5114621;27;20206;-40
2021/03/02 00:58:04;;;;;;;26.63;18.60;;;;;;;;;;5118774;27;20439;-41
2021/03/02 01:00:29;;;;;;;24.40;18.73;;;;;;;;;;5112747;27;20179;-40
2021/03/02 01:02:54;;;;;;;22.83;18.20;;;;;;;;;;5114379;27;20171;-40
2021/03/02 01:05:19;;;;;;;22.63;17.90;;;;;;;;;;5110303;28;20513;-40
2021/03/02 01:07:45;;;;;;;22.13;17.33;;;;;;;;;;5109315;27;20175;-39
2021/03/02 01:10:11;;;;;;;25.63;18.40;;;;;;;;;;5111855;28;20765;-39
2021/03/02 01:12:36;;;;;;;21.70;18.17;;;;;;;;;;5109585;27;20171;-39
2021/03/02 01:15:02;;;;;;;26.40;18.38;;;;;;;;;;5108195;27;21100;-39
2021/03/02 01:17:27;;;;;;;25.50;18.50;;;;;;;;;;5122995;27;20182;-40
2021/03/02 01:19:52;;;;;;;24.60;18.53;;;;;;;;;;5123065;27;20596;-41
2021/03/02 01:22:17;;;;;;;23.33;18.30;;;;;;;;;;5104084;27;20184;-41
2021/03/02 01:24:43;;;;;;;24.20;18.37;;;;;;;;;;5113568;27;20637;-40
2021/03/02 01:27:08;;;;;;;23.50;17.63;;;;;;;;;;5109768;28;20169;-40
2021/03/02 01:29:33;;;;;;;24.97;18.87;;;;;;;;;;5115504;27;20631;-41
2021/03/02 01:31:59;;;;;;;25.30;18.73;;;;;;;;;;5108467;27;20173;-40
2021/03/02 01:34:24;;;;;;;23.97;18.27;;;;;;;;;;5107797;27;20233;-40
2021/03/02 01:36:50;;;;;;;26.73;19.03;;;;;;;;;;5103639;27;20587;-40
2021/03/02 01:39:15;;;;;;;23.17;18.27;;;;;;;;;;5105038;27;20201;-40
2021/03/02 01:41:43;;;;;;;24.47;18.67;;;;;;;;;;5118161;27;20180;-40
2021/03/02 01:44:08;;;;;;;30.07;19.40;;;;;;;;;;5112642;27;20180;-41
2021/03/02 01:46:33;;;;;;;20.92;17.63;;;;;;;;;;5105738;27;20661;-40
2021/03/02 01:48:58;;;;;;;22.97;18.43;;;;;;;;;;5111797;28;20249;-42
2021/03/02 01:51:23;;;;;;;26.40;19.52;;;;;;;;;;5109437;28;20174;-40
2021/03/02 01:53:48;;;;;;;26.63;19.45;;;;;;;;;;5091630;28;20301;-41
2021/03/02 01:56:14;;;;;;;21.13;17.10;;;;;;;;;;5107084;28;20333;-41
2021/03/02 01:58:39;;;;;;;21.77;17.53;;;;;;;;;;5111770;28;20166;-41
2021/03/02 02:01:06;;;;;;;27.13;18.20;;;;;;;;;;5101683;28;20178;-41
2021/03/02 02:03:37;;;;;;;24.60;18.30;;;;;;;;;;5110449;28;20186;-40
2021/03/02 02:06:06;;;;;;;21.77;17.57;;;;;;;;;;5100893;28;20677;-41
2021/03/02 02:08:37;;;;;;;21.10;17.50;;;;;;;;;;5103958;28;20983;-40
2021/03/02 02:11:07;;;;;;;21.63;17.53;;;;;;;;;;5121901;28;20608;-40
2021/03/02 02:13:36;;;;;;;23.13;18.40;;;;;;;;;;5118035;28;20587;-40
2021/03/02 02:16:04;;;;;;;23.00;17.70;;;;;;;;;;5125650;28;21207;-40
2021/03/02 02:18:32;;;;;;;21.30;17.30;;;;;;;;;;5096593;28;21174;-40
2021/03/02 02:21:06;;;;;;;25.33;18.17;;;;;;;;;;5119977;28;20584;-41
2021/03/02 02:23:34;;;;;;;19.63;16.57;;;;;;;;;;5115013;28;20599;-40
2021/03/02 02:26:02;;;;;;;22.47;17.87;;;;;;;;;;5122685;28;20608;-40
2021/03/02 02:28:28;;;;;;;24.13;17.90;;;;;;;;;;5110694;28;20720;-40
2021/03/02 02:30:57;;;;;;;21.83;18.00;;;;;;;;;;5093162;28;20610;-41
2021/03/02 02:33:25;;;;;;;23.13;18.17;;;;;;;;;;5108777;28;21174;-40
2021/03/02 02:35:50;;;;;;;27.80;18.97;;;;;;;;;;5109156;28;20634;-41
2021/03/02 02:38:17;;;;;;;24.73;17.50;;;;;;;;;;5103848;28;20674;-41
2021/03/02 02:40:43;;;;;;;23.90;17.90;;;;;;;;;;5117088;28;20199;-41
2021/03/02 02:43:09;;;;;;;29.47;19.50;;;;;;;;;;5110905;28;20588;-41
2021/03/02 02:45:34;;;;;;;26.17;18.23;;;;;;;;;;5097742;28;514319;-41
2021/03/02 02:48:00;;;;;;;27.80;20.53;;;;;;;;;;5112664;27;20625;-40
2021/03/02 02:50:25;;;;;;;26.40;18.90;;;;;;;;;;5108573;28;20186;-41
2021/03/02 02:52:51;;;;;;;26.40;19.30;;;;;;;;;;5106267;27;20169;-41
2021/03/02 02:55:16;;;;;;;25.53;18.90;;;;;;;;;;5113295;27;20208;-42
2021/03/02 02:57:43;;;;;;;27.10;19.00;;;;;;;;;;5112154;27;20186;-41
2021/03/02 03:00:09;;;;;;;27.70;19.30;;;;;;;;;;5103493;28;20588;-41
2021/03/02 03:02:36;;;;;;;39.30;24.23;;;;;;;;;;5112683;27;20637;-41
2021/03/02 03:05:06;;;;;;;30.47;21.30;;;;;;;;;;5127317;27;20695;-41
2021/03/02 03:07:39;;;;;;;35.67;24.07;;;;;;;;;;5106343;28;21178;-41
2021/03/02 03:10:05;;;;;;;40.57;27.50;;;;;;;;;;5111367;27;21033;-41
2021/03/02 03:12:33;;;;;;;44.93;27.73;;;;;;;;;;5109409;28;21219;-41
2021/03/02 03:15:01;;;;;;;44.30;27.40;;;;;;;;;;5122493;27;21274;-40
2021/03/02 03:17:32;;;;;;;48.07;29.23;;;;;;;;;;5107635;28;20673;-41
2021/03/02 03:19:57;;;;;;;42.13;25.60;;;;;;;;;;5121787;27;20625;-41
2021/03/02 03:22:23;;;;;;;49.97;28.90;;;;;;;;;;5098431;27;20635;-42
2021/03/02 03:24:48;;;;;;;53.87;29.37;;;;;;;;;;5130763;27;20636;-41
2021/03/02 03:27:14;;;;;;;50.87;30.17;;;;;;;;;;5113928;27;20180;-41
2021/03/02 03:29:40;;;;;;;49.53;29.90;;;;;;;;;;5107970;27;20183;-42
2021/03/02 03:32:06;;;;;;;52.37;30.87;;;;;;;;;;5118359;27;20193;-40
2021/03/02 03:34:32;;;;;;;54.33;31.10;;;;;;;;;;5098484;28;20612;-40
2021/03/02 03:36:57;;;;;;;61.90;35.60;;;;;;;;;;5096404;28;20606;-40
2021/03/02 03:39:22;;;;;;;56.40;31.53;;;;;;;;;;5127959;27;20204;-41
2021/03/02 03:41:49;;;;;;;55.00;33.37;;;;;;;;;;5109778;27;20201;-41
2021/03/02 03:44:14;;;;;;;48.60;31.40;;;;;;;;;;5109541;27;20180;-41
2021/03/02 03:46:39;;;;;;;53.93;32.00;;;;;;;;;;5110382;27;21299;-41
2021/03/02 03:49:04;;;;;;;56.97;34.20;;;;;;;;;;5104860;27;20177;-41
2021/03/02 03:51:30;;;;;;;57.87;31.57;;;;;;;;;;5100013;27;20181;-41
2021/03/02 03:53:55;;;;;;;63.50;34.03;;;;;;;;;;5110264;28;20178;-40
2021/03/02 03:56:21;;;;;;;53.17;31.13;;;;;;;;;;5098376;27;20204;-41
2021/03/02 03:58:46;;;;;;;54.17;31.70;;;;;;;;;;5110923;27;20509;-41
2021/03/02 04:01:12;;;;;;;56.00;30.40;;;;;;;;;;5108167;28;20245;-41
2021/03/02 04:03:37;;;;;;;49.90;29.10;;;;;;;;;;5130305;27;20176;-41
2021/03/02 04:06:03;;;;;;;55.03;30.20;;;;;;;;;;5115520;27;20681;-41
2021/03/02 04:08:28;;;;;;;55.07;32.00;;;;;;;;;;5109639;27;20177;-42
2021/03/02 04:10:53;;;;;;;51.47;29.57;;;;;;;;;;5116193;27;20173;-40
2021/03/02 04:13:18;;;;;;;62.70;32.17;;;;;;;;;;5110780;27;20260;-41
2021/03/02 04:15:44;;;;;;;51.40;30.10;;;;;;;;;;5116941;27;20266;-41
2021/03/02 04:18:10;;;;;;;59.43;32.90;;;;;;;;;;5098302;28;20208;-41
2021/03/02 04:20:36;;;;;;;58.57;32.20;;;;;;;;;;5121793;27;20181;-40
2021/03/02 04:23:01;;;;;;;53.27;31.43;;;;;;;;;;5121370;27;20605;-41
2021/03/02 04:25:26;;;;;;;57.47;31.70;;;;;;;;;;5120927;27;20942;-41
2021/03/02 04:27:51;;;;;;;46.08;28.40;;;;;;;;;;5101124;28;20180;-41
2021/03/02 04:30:17;;;;;;;54.17;31.97;;;;;;;;;;5110502;28;20181;-41
2021/03/02 04:32:42;;;;;;;56.10;31.27;;;;;;;;;;5105463;28;20195;-41
2021/03/02 04:35:07;;;;;;;56.15;30.17;;;;;;;;;;5103644;27;20207;-41
2021/03/02 04:37:32;;;;;;;47.30;26.83;;;;;;;;;;5117982;27;20646;-41
2021/03/02 04:39:58;;;;;;;51.65;30.20;;;;;;;;;;5094322;28;20197;-40
2021/03/02 04:42:23;;;;;;;47.93;28.43;;;;;;;;;;5120485;28;20172;-41
2021/03/02 04:44:48;;;;;;;52.07;28.50;;;;;;;;;;5108061;28;20637;-41
2021/03/02 04:47:13;;;;;;;51.60;29.70;;;;;;;;;;5104843;28;20235;-41
2021/03/02 04:49:38;;;;;;;49.47;30.83;;;;;;;;;;5093052;28;20820;-41
2021/03/02 04:52:03;;;;;;;48.50;29.83;;;;;;;;;;5105369;28;20209;-39
2021/03/02 04:54:29;;;;;;;49.60;28.60;;;;;;;;;;5108750;28;20177;-40
2021/03/02 04:56:54;;;;;;;55.63;30.17;;;;;;;;;;5110003;28;20168;-41
2021/03/02 04:59:19;;;;;;;52.28;30.40;;;;;;;;;;5106104;28;20704;-42
2021/03/02 05:01:44;;;;;;;60.47;31.40;;;;;;;;;;5090396;28;20176;-42
2021/03/02 05:04:10;;;;;;;53.17;32.43;;;;;;;;;;5087804;28;21008;-42
2021/03/02 05:06:35;;;;;;;59.53;31.77;;;;;;;;;;5093704;28;20263;-43
2021/03/02 05:09:00;;;;;;;62.53;31.37;;;;;;;;;;5102264;28;20177;-40
2021/03/02 05:11:25;;;;;;;53.28;30.35;;;;;;;;;;5101161;28;20189;-42
2021/03/02 05:13:50;;;;;;;54.13;31.90;;;;;;;;;;5109083;28;20387;-40
2021/03/02 05:16:15;;;;;;;69.80;34.00;;;;;;;;;;5096040;28;20208;-41
2021/03/02 05:18:41;;;;;;;55.65;30.73;;;;;;;;;;5120994;28;20172;-41
2021/03/02 05:21:06;;;;;;;56.27;31.80;;;;;;;;;;5098675;28;20178;-41
2021/03/02 05:23:31;;;;;;;55.90;31.70;;;;;;;;;;5104831;28;20178;-42
2021/03/02 05:25:56;;;;;;;58.65;33.33;;;;;;;;;;5107658;28;20177;-42
2021/03/02 05:28:21;;;;;;;71.93;35.85;;;;;;;;;;5106388;28;20190;-42
2021/03/02 05:30:47;;;;;;;49.78;30.15;;;;;;;;;;5108555;28;20816;-42
2021/03/02 05:33:12;;;;;;;54.63;29.58;;;;;;;;;;5106002;28;20189;-41
2021/03/02 05:35:37;;;;;;;63.97;32.20;;;;;;;;;;5104814;28;20211;-41
2021/03/02 05:38:02;;;;;;;61.20;34.97;;;;;;;;;;5102602;28;20580;-41
2021/03/02 05:40:27;;;;;;;61.07;33.20;;;;;;;;;;5089107;28;20201;-43
2021/03/02 05:42:53;;;;;;;58.03;33.37;;;;;;;;;;5096345;28;20217;-41
2021/03/02 05:45:18;;;;;;;57.10;31.73;;;;;;;;;;5089489;28;20657;-41
2021/03/02 05:47:44;;;;;;;57.03;32.70;;;;;;;;;;5104243;28;20174;-41
2021/03/02 05:50:10;;;;;;;57.67;31.33;;;;;;;;;;5109045;28;20184;-40
2021/03/02 05:52:35;;;;;;;47.53;30.33;;;;;;;;;;5108740;28;20172;-41
2021/03/02 05:55:01;;;;;;;56.90;31.50;;;;;;;;;;5108759;28;20231;-40
2021/03/02 05:57:27;;;;;;;55.77;31.87;;;;;;;;;;5108430;28;20556;-40
2021/03/02 05:59:52;;;;;;;49.03;30.57;;;;;;;;;;5109307;28;20506;-40
2021/03/02 06:02:17;;;;;;;54.13;29.87;;;;;;;;;;5105254;28;20718;-40
2021/03/02 06:04:42;;;;;;;48.27;28.90;;;;;;;;;;5107191;28;20176;-40
2021/03/02 06:07:08;;;;;;;52.60;30.70;;;;;;;;;;5098831;28;20642;-41
2021/03/02 06:09:33;;;;;;;49.83;29.10;;;;;;;;;;5098231;28;20180;-40
2021/03/02 06:12:05;;;;;;;54.60;31.73;;;;;;;;;;5108782;28;20583;-41
2021/03/02 06:14:33;;;;;;;56.73;31.30;;;;;;;;;;5108634;28;20655;-41
2021/03/02 06:16:59;;;;;;;49.80;29.43;;;;;;;;;;5103220;28;20580;-41
2021/03/02 06:19:39;;;;;;;49.30;28.58;;;;;;;;;;5110566;28;20613;-41
2021/03/02 06:22:04;;;;;;;54.17;31.33;;;;;;;;;;5109412;28;20177;-41
2021/03/02 06:24:36;;;;;;;51.87;28.20;;;;;;;;;;5110764;28;21446;-41
2021/03/02 06:27:08;;;;;;;54.10;28.47;;;;;;;;;;5110622;28;20239;-41
2021/03/02 06:29:33;;;;;;;49.90;31.07;;;;;;;;;;5109325;28;20603;-41
2021/03/02 06:31:59;;;;;;;53.58;30.20;;;;;;;;;;5110872;28;21431;-41
2021/03/02 06:34:24;;;;;;;47.67;27.80;;;;;;;;;;5111007;28;20207;-41
2021/03/02 06:36:52;;;;;;;48.72;30.40;;;;;;;;;;5111570;28;20204;-41
2021/03/02 06:39:21;;;;;;;41.77;28.10;;;;;;;;;;5110989;28;20205;-41
2021/03/02 06:41:46;;;;;;;47.50;29.73;;;;;;;;;;5111369;28;20583;-42
2021/03/02 06:44:14;;;;;;;49.63;28.02;;;;;;;;;;5110378;28;20599;-41
2021/03/02 06:46:39;;;;;;;40.90;27.23;;;;;;;;;;5107894;28;20688;-41
2021/03/02 06:49:05;;;;;;;46.80;27.63;;;;;;;;;;5111102;28;20598;-40
2021/03/02 06:51:31;;;;;;;43.70;27.70;;;;;;;;;;5110040;28;20179;-41
2021/03/02 06:54:02;;;;;;;43.63;27.53;;;;;;;;;;5110661;28;20180;-40
2021/03/02 06:56:27;;;;;;;40.30;26.30;;;;;;;;;;5109006;28;20647;-41
2021/03/02 06:59:11;;;;;;;42.00;28.03;;;;;;;;;;5110829;28;21423;-41
2021/03/02 07:01:37;;;;;;;40.23;27.00;;;;;;;;;;5110677;28;20184;-40
2021/03/02 07:04:09;;;;;;;41.70;26.07;;;;;;;;;;5109898;28;21228;-41
2021/03/02 07:06:38;;;;;;;42.23;26.50;;;;;;;;;;5106166;28;20190;-40
2021/03/02 07:09:04;;;;;;;42.40;27.37;;;;;;;;;;5107293;28;20690;-41
2021/03/02 07:11:29;;;;;;;40.83;28.37;;;;;;;;;;5110580;28;20761;-43
2021/03/02 07:13:54;;;;;;;40.03;28.37;;;;;;;;;;5110862;28;21021;-41
2021/03/02 07:16:20;;;;;;;39.30;27.40;;;;;;;;;;5109954;28;20713;-41
2021/03/02 07:18:46;;;;;;;41.57;27.30;;;;;;;;;;5110361;28;20170;-41
2021/03/02 07:21:11;;;;;;;45.77;27.43;;;;;;;;;;5110577;28;20181;-41
2021/03/02 07:23:37;;;;;;;44.73;28.10;;;;;;;;;;5110488;28;20672;-42
2021/03/02 07:26:03;;;;;;;41.60;27.13;;;;;;;;;;5116935;27;20260;-41
2021/03/02 07:28:30;;;;;;;41.47;25.53;;;;;;;;;;5110859;28;20726;-41
2021/03/02 07:30:55;;;;;;;43.67;27.70;;;;;;;;;;5110105;28;20170;-42
2021/03/02 07:33:21;;;;;;;39.80;27.83;;;;;;;;;;5110602;28;20660;-40
2021/03/02 07:35:46;;;;;;;38.63;25.70;;;;;;;;;;5110060;28;20266;-40
2021/03/02 07:38:16;;;;;;;37.37;24.77;;;;;;;;;;5109501;28;20227;-40
2021/03/02 07:40:42;;;;;;;45.70;29.47;;;;;;;;;;5106363;28;20203;-40
2021/03/02 07:43:27;;;;;;;40.67;27.53;;;;;;;;;;5114336;27;20594;-41
2021/03/02 07:45:52;;;;;;;39.77;25.80;;;;;;;;;;5110345;28;20991;-40
2021/03/02 07:48:24;;;;;;;39.00;26.20;;;;;;;;;;5109731;28;20602;-39
2021/03/02 07:51:09;;;;;;;40.93;27.53;;;;;;;;;;5109690;28;20260;-41
2021/03/02 07:53:35;;;;;;;41.33;25.50;;;;;;;;;;5110466;28;20619;-41
2021/03/02 07:56:12;;;;;;;41.88;27.95;;;;;;;;;;5095510;28;20631;-42
2021/03/02 07:58:37;;;;;;;41.93;26.77;;;;;;;;;;5106054;28;20684;-41
2021/03/02 08:01:22;;;;;;;35.50;25.60;;;;;;;;;;5073220;28;20692;-46
2021/03/02 08:03:47;;;;;;;37.43;25.20;;;;;;;;;;5100903;28;20174;-40
2021/03/02 08:06:21;;;;;;;37.93;25.90;;;;;;;;;;5088581;28;21042;-45
2021/03/02 08:08:47;;;;;;;33.93;24.70;;;;;;;;;;5104050;28;20628;-41
2021/03/02 08:11:31;;;;;;;36.20;24.07;;;;;;;;;;5103073;28;20616;-40
2021/03/02 08:13:57;;;;;;;37.90;25.33;;;;;;;;;;5089726;28;20229;-41
2021/03/02 08:16:41;;;;;;;32.67;24.63;;;;;;;;;;5103127;28;20678;-41
2021/03/02 08:19:24;;;;;;;37.00;25.37;;;;;;;;;;5107187;28;20649;-41
2021/03/02 08:21:50;;;;;;;33.53;25.00;;;;;;;;;;5109475;28;20604;-40
2021/03/02 08:24:15;;;;;;;38.45;26.92;;;;;;;;;;5109254;28;21125;-40
2021/03/02 08:26:43;;;;;;;34.55;26.80;;;;;;;;;;5108573;28;20263;-42
2021/03/02 08:29:17;;;;;;;38.10;27.20;;;;;;;;;;5109523;28;20261;-42
2021/03/02 08:31:43;;;;;;;37.80;28.30;;;;;;;;;;5109505;28;20603;-41
2021/03/02 08:34:10;;;;;;;37.83;27.33;;;;;;;;;;5109194;28;21177;-41
2021/03/02 08:36:36;;;;;;;37.20;28.30;;;;;;;;;;5109219;28;20615;-43
2021/03/02 08:39:07;;;;;;;35.47;26.87;;;;;;;;;;5109010;28;20607;-41
2021/03/02 08:41:33;;;;;;;33.17;26.37;;;;;;;;;;5109660;28;20582;-41
2021/03/02 08:43:59;;;;;;;38.67;28.10;;;;;;;;;;5109340;28;20559;-41
2021/03/02 08:46:28;;;;;;;35.70;26.43;;;;;;;;;;5108715;28;20674;-41
2021/03/02 08:48:53;;;;;;;35.47;26.90;;;;;;;;;;5109581;28;20195;-41
2021/03/02 08:51:20;;;;;;;35.97;26.47;;;;;;;;;;5109328;28;21051;-42
2021/03/02 08:53:49;;;;;;;36.80;26.87;;;;;;;;;;5108877;28;20185;-43
2021/03/02 08:56:17;;;;;;;40.00;28.20;;;;;;;;;;5108830;28;20742;-40
2021/03/02 08:58:43;;;;;;;33.00;24.60;;;;;;;;;;5109046;28;20618;-41
2021/03/02 09:01:09;;;;;;;33.77;26.53;;;;;;;;;;5108912;28;20915;-42
2021/03/02 09:03:37;;;;;;;38.17;27.27;;;;;;;;;;5108951;28;20907;-40
2021/03/02 09:06:06;;;;;;;41.47;30.23;;;;;;;;;;5107293;28;20967;-41
2021/03/02 09:08:31;;;;;;;37.60;26.87;;;;;;;;;;5108762;28;20623;-41
2021/03/02 09:11:03;;;;;;;37.30;27.98;;;;;;;;;;5108935;28;20595;-41
2021/03/02 09:13:35;;;;;;;35.73;27.10;;;;;;;;;;5110104;28;20525;-41
2021/03/02 09:16:00;;;;;;;34.27;25.90;;;;;;;;;;5112880;28;20675;-46
2021/03/02 09:18:25;;;;;;;38.63;26.80;;;;;;;;;;5112776;28;20734;-40
2021/03/02 09:20:51;;;;;;;33.83;26.10;;;;;;;;;;5113053;28;20250;-40
2021/03/02 09:23:16;;;;;;;37.57;26.43;;;;;;;;;;5112939;28;20179;-40
2021/03/02 09:25:42;;;;;;;36.40;27.20;;;;;;;;;;5113196;28;20585;-41
2021/03/02 09:28:17;;;;;;;35.13;27.50;;;;;;;;;;5112545;28;20182;-41
2021/03/02 09:30:43;;;;;;;39.80;27.90;;;;;;;;;;5113303;28;20883;-40
2021/03/02 09:33:09;;;;;;;41.17;30.50;;;;;;;;;;5112530;28;20607;-41
2021/03/02 09:35:34;;;;;;;35.83;27.10;;;;;;;;;;5112611;28;20239;-43
2021/03/02 09:37:59;;;;;;;36.03;27.27;;;;;;;;;;5112359;28;20641;-39
2021/03/02 09:40:25;;;;;;;38.37;29.07;;;;;;;;;;5112926;28;20192;-41
2021/03/02 09:42:57;;;;;;;37.15;27.80;;;;;;;;;;5112829;28;20173;-40
2021/03/02 09:45:22;;;;;;;34.20;25.83;;;;;;;;;;5112334;28;20271;-41
2021/03/02 09:47:48;;;;;;;36.17;27.03;;;;;;;;;;5112351;28;20612;-41
2021/03/02 09:50:14;;;;;;;33.73;25.87;;;;;;;;;;5112354;28;20252;-40
2021/03/02 09:52:41;;;;;;;30.00;24.40;;;;;;;;;;5112608;28;20619;-40
2021/03/02 09:55:19;;;;;;;32.53;26.63;;;;;;;;;;5112234;28;20715;-41
2021/03/02 09:57:53;;;;;;;35.63;26.90;;;;;;;;;;5112128;28;20608;-42
2021/03/02 10:00:25;;;;;;;34.33;26.33;;;;;;;;;;5111897;28;20755;-40
2021/03/02 10:02:55;;;;;;;37.43;27.40;;;;;;;;;;5112030;28;20599;-41
2021/03/02 10:05:28;;;;;;;32.37;25.27;;;;;;;;;;5112036;28;20633;-41
2021/03/02 10:07:53;;;;;;;35.67;26.90;;;;;;;;;;5111905;28;20627;-41
2021/03/02 10:10:32;;;;;;;35.38;25.75;;;;;;;;;;5111992;28;20625;-42
2021/03/02 10:12:58;;;;;;;35.63;27.53;;;;;;;;;;5112053;28;20223;-42
2021/03/02 10:15:23;;;;;;;34.50;26.80;;;;;;;;;;5111654;28;20682;-42
2021/03/02 10:17:49;;;;;;;32.10;25.70;;;;;;;;;;5111515;28;20610;-42
2021/03/02 10:20:14;;;;;;;32.07;25.97;;;;;;;;;;5111848;28;20176;-42
2021/03/02 10:22:39;;;;;;;34.10;26.30;;;;;;;;;;5111859;28;20669;-43
2021/03/02 10:25:04;;;;;;;33.63;27.90;;;;;;;;;;5111481;28;20184;-42
2021/03/02 10:27:30;;;;;;;34.43;25.90;;;;;;;;;;5111630;28;20258;-42
2021/03/02 10:29:55;;;;;;;31.90;26.03;;;;;;;;;;5111622;28;20265;-41
2021/03/02 10:32:20;;;;;;;33.67;27.27;;;;;;;;;;5111376;28;20184;-42
2021/03/02 10:34:45;;;;;;;30.33;23.65;;;;;;;;;;5111629;28;20866;-43
2021/03/02 10:37:12;;;;;;;28.47;25.30;;;;;;;;;;5111149;28;20196;-40
2021/03/02 10:39:38;;;;;;;33.97;26.57;;;;;;;;;;5111102;28;20205;-40
2021/03/02 10:42:03;;;;;;;30.83;24.73;;;;;;;;;;5111431;28;20571;-40
2021/03/02 10:44:29;;;;;;;31.60;24.47;;;;;;;;;;5111054;28;20591;-41
2021/03/02 10:46:54;;;;;;;35.63;27.03;;;;;;;;;;5110470;28;20753;-40
2021/03/02 10:49:19;;;;;;;31.85;26.55;;;;;;;;;;5111465;28;20188;-41
2021/03/02 10:51:44;;;;;;;31.43;27.20;;;;;;;;;;5111563;28;20248;-42
2021/03/02 10:54:09;;;;;;;31.40;26.17;;;;;;;;;;5111447;28;20627;-41
2021/03/02 10:56:35;;;;;;;29.83;24.97;;;;;;;;;;5110271;28;20202;-41
2021/03/02 10:59:00;;;;;;;34.60;27.43;;;;;;;;;;5111240;28;20627;-42
2021/03/02 11:01:25;;;;;;;31.77;26.27;;;;;;;;;;5110882;28;20183;-41
2021/03/02 11:03:51;;;;;;;31.13;25.37;;;;;;;;;;5111328;28;20171;-41
2021/03/02 11:06:18;;;;;;;32.73;25.17;;;;;;;;;;5110866;28;20169;-41
2021/03/02 11:08:44;;;;;;;31.37;25.90;;;;;;;;;;5110665;28;20177;-41
2021/03/02 11:11:12;;;;;;;30.43;25.50;;;;;;;;;;5110761;28;20583;-42
2021/03/02 11:13:39;;;;;;;30.20;24.37;;;;;;;;;;5110998;28;20604;-42
2021/03/02 11:16:04;;;;;;;30.43;25.93;;;;;;;;;;5110401;28;20634;-42
2021/03/02 11:18:29;;;;;;;31.17;25.90;;;;;;;;;;5110441;28;21216;-42
2021/03/02 11:20:55;;;;;;;30.20;26.85;;;;;;;;;;5110739;28;20626;-42
2021/03/02 11:23:20;;;;;;;31.38;26.08;;;;;;;;;;5110620;28;20240;-42
2021/03/02 11:25:45;;;;;;;33.17;26.90;;;;;;;;;;5110605;28;20204;-42
2021/03/02 11:28:12;;;;;;;29.60;24.33;;;;;;;;;;5110074;28;20269;-42
2021/03/02 11:30:38;;;;;;;35.73;28.30;;;;;;;;;;5110551;28;20173;-42
2021/03/02 11:33:03;;;;;;;33.40;27.33;;;;;;;;;;5110087;28;20652;-42
2021/03/02 11:35:28;;;;;;;34.40;27.93;;;;;;;;;;5110386;28;21028;-42
2021/03/02 11:37:53;;;;;;;31.07;25.30;;;;;;;;;;5109279;28;20179;-42
2021/03/02 11:40:19;;;;;;;30.63;25.73;;;;;;;;;;5110119;28;20642;-42
2021/03/02 11:42:45;;;;;;;29.90;25.30;;;;;;;;;;5110360;28;20186;-42
2021/03/02 11:45:11;;;;;;;28.03;23.70;;;;;;;;;;5109962;28;20584;-42
2021/03/02 11:47:36;;;;;;;29.07;23.67;;;;;;;;;;5109761;28;20229;-41
2021/03/02 11:50:02;;;;;;;30.37;26.10;;;;;;;;;;5109931;28;20964;-41
2021/03/02 11:52:27;;;;;;;25.07;22.20;;;;;;;;;;5106571;28;20181;-41
2021/03/02 11:54:53;;;;;;;27.77;23.90;;;;;;;;;;5091619;28;20763;-41
2021/03/02 11:57:18;;;;;;;29.17;24.97;;;;;;;;;;5100119;28;20806;-42
2021/03/02 11:59:43;;;;;;;27.70;22.30;;;;;;;;;;5104591;28;20246;-42
2021/03/02 12:02:09;;;;;;;26.80;23.20;;;;;;;;;;5109163;28;20921;-42
2021/03/02 12:04:34;;;;;;;26.47;22.97;;;;;;;;;;5093114;28;20177;-42
2021/03/02 12:07:00;;;;;;;26.33;23.53;;;;;;;;;;5089871;28;20624;-42
2021/03/02 12:09:25;;;;;;;27.13;21.43;;;;;;;;;;5106737;28;20179;-40
2021/03/02 12:11:50;;;;;;;25.13;21.90;;;;;;;;;;5106984;28;20210;-40
2021/03/02 12:14:15;;;;;;;24.80;21.58;;;;;;;;;;5105331;28;20181;-42
2021/03/02 12:16:40;;;;;;;26.80;22.60;;;;;;;;;;5100780;28;20281;-42
2021/03/02 12:19:06;;;;;;;28.17;22.13;;;;;;;;;;5104943;28;20188;-42
2021/03/02 12:21:31;;;;;;;25.00;21.27;;;;;;;;;;5103992;28;20169;-42
2021/03/02 12:23:56;;;;;;;27.30;22.30;;;;;;;;;;5103051;28;20729;-41
2021/03/02 12:26:21;;;;;;;24.50;21.30;;;;;;;;;;5106004;28;20189;-41
2021/03/02 12:28:46;;;;;;;25.70;21.90;;;;;;;;;;5106780;28;20650;-41
2021/03/02 12:31:12;;;;;;;23.57;20.97;;;;;;;;;;5106331;28;20337;-41
2021/03/02 12:33:37;;;;;;;22.67;20.27;;;;;;;;;;5106281;28;20704;-42
2021/03/02 12:36:02;;;;;;;28.50;22.35;;;;;;;;;;5106857;28;20201;-42
2021/03/02 12:38:27;;;;;;;27.77;21.33;;;;;;;;;;5105139;28;20190;-42
2021/03/02 12:40:52;;;;;;;23.33;20.48;;;;;;;;;;5087250;28;20201;-42
2021/03/02 12:43:20;;;;;;;23.05;20.63;;;;;;;;;;5099690;28;20194;-42
2021/03/02 12:45:45;;;;;;;24.07;20.73;;;;;;;;;;5109336;28;20238;-42
2021/03/02 12:48:10;;;;;;;24.53;20.70;;;;;;;;;;5109624;28;20603;-41
2021/03/02 12:50:35;;;;;;;22.50;20.17;;;;;;;;;;5113924;28;20200;-42
2021/03/02 12:53:00;;;;;;;25.42;20.17;;;;;;;;;;5108842;28;20219;-43
2021/03/02 12:55:25;;;;;;;26.70;22.33;;;;;;;;;;5102244;28;20251;-43
2021/03/02 12:57:51;;;;;;;23.13;20.73;;;;;;;;;;5097737;28;20170;-43
2021/03/02 13:00:16;;;;;;;24.53;20.33;;;;;;;;;;5098622;28;20520;-42
2021/03/02 13:02:42;;;;;;;28.23;21.47;;;;;;;;;;5107386;28;20184;-41
2021/03/02 13:05:07;;;;;;;24.87;22.07;;;;;;;;;;5113576;28;20671;-41
2021/03/02 13:07:33;;;;;;;25.27;21.47;;;;;;;;;;5112170;28;20178;-42
2021/03/02 13:09:58;;;;;;;22.27;19.13;;;;;;;;;;5113526;28;20208;-41
2021/03/02 13:12:23;;;;;;;22.23;18.50;;;;;;;;;;5105801;28;20199;-41
2021/03/02 13:14:49;;;;;;;21.33;19.13;;;;;;;;;;5093316;28;20739;-41
2021/03/02 13:17:14;;;;;;;25.90;21.50;;;;;;;;;;5101939;28;20166;-41
2021/03/02 13:19:40;;;;;;;23.13;19.60;;;;;;;;;;5112955;28;20204;-41
2021/03/02 13:22:05;;;;;;;22.30;19.77;;;;;;;;;;5108462;28;20663;-42
2021/03/02 13:24:30;;;;;;;20.37;18.17;;;;;;;;;;5109828;28;20193;-43
2021/03/02 13:26:55;;;;;;;22.00;18.50;;;;;;;;;;5112388;28;20652;-43
2021/03/02 13:29:23;;;;;;;20.27;18.07;;;;;;;;;;5112220;28;20277;-42
2021/03/02 13:31:48;;;;;;;21.20;18.20;;;;;;;;;;5111673;28;20174;-43
2021/03/02 13:34:15;;;;;;;18.40;16.43;;;;;;;;;;5094900;28;20601;-43
2021/03/02 13:36:40;;;;;;;22.20;18.20;;;;;;;;;;5110574;28;20206;-42
2021/03/02 13:39:06;;;;;;;22.13;19.13;;;;;;;;;;5111773;28;20641;-43
2021/03/02 13:41:31;;;;;;;21.13;18.60;;;;;;;;;;5108962;28;20186;-43
2021/03/02 13:43:58;;;;;;;21.00;17.67;;;;;;;;;;5092878;28;20539;-43
2021/03/02 13:46:24;;;;;;;22.83;18.17;;;;;;;;;;5106877;28;20217;-43
2021/03/02 13:48:49;;;;;;;22.03;18.67;;;;;;;;;;5113422;27;20592;-43
2021/03/02 13:51:15;;;;;;;19.57;17.57;;;;;;;;;;5111671;28;20177;-43
2021/03/02 13:53:41;;;;;;;19.13;17.03;;;;;;;;;;5112390;28;20217;-43
2021/03/02 13:56:06;;;;;;;18.03;16.13;;;;;;;;;;5106658;28;20671;-41
2021/03/02 13:58:31;;;;;;;19.57;17.57;;;;;;;;;;5108577;28;20174;-41
2021/03/02 14:00:56;;;;;;;18.98;16.70;;;;;;;;;;5090583;28;20199;-41
2021/03/02 14:03:22;;;;;;;19.80;16.63;;;;;;;;;;5095721;28;20548;-41
2021/03/02 14:05:48;;;;;;;20.07;17.47;;;;;;;;;;5107614;28;20167;-42
2021/03/02 14:08:13;;;;;;;17.13;15.33;;;;;;;;;;5106537;28;20584;-42
2021/03/02 14:10:38;;;;;;;19.87;16.67;;;;;;;;;;5093527;28;21150;-43
2021/03/02 14:13:04;;;;;;;16.97;15.17;;;;;;;;;;5107009;28;20262;-42